Litton, Mississippi
Current Conditions -  °F | °C
As of 6:34 AM on Monday 20 Oct 2014 (Local Time) from KGLH Reporting Station
Moderate Fog Moderate Fog  
Wind Chill: 46°   Ceiling: 200
Heat Index: 46°   Visibility: 0.5mi
Dew Point: 45°   Wind: 0mph
Humidity: 96%   Direction: NA
Pressure: 30.08"   Gusts: NA
Location:  33.5672°N, 90.9043°W
Report Text: KGLH 201134Z AUTO 00000KT 1/2SM FG VV002 08/07 A3008 RMK AO2 T00780072
Loading
Personal Weather Stations






























Interactive Weather Map
Tropical Storm Tracking
New forecast layout! Learn more

10-Day Weather Forecast

Advertisements
Track Severe Weather on mobile